createdAt,value
2018-06-22T00:00:27.008Z,10.72
2018-06-22T00:05:30.187Z,10.64
2018-06-22T00:10:34.192Z,10.59
2018-06-22T00:15:37.285Z,10.55
2018-06-22T00:20:40.427Z,10.58
2018-06-22T00:25:43.520Z,10.51
2018-06-22T00:30:46.655Z,10.48
2018-06-22T00:35:49.851Z,10.53
2018-06-22T00:40:53.021Z,10.50
2018-06-22T00:45:56.224Z,10.55
2018-06-22T00:50:59.461Z,10.52
2018-06-22T00:56:02.557Z,10.33
2018-06-22T01:01:05.711Z,10.18
2018-06-22T01:06:08.870Z,10.03
2018-06-22T01:11:12.325Z,9.97
2018-06-22T01:16:15.526Z,10.02
2018-06-22T01:21:18.685Z,9.93
2018-06-22T01:26:21.818Z,9.90
2018-06-22T01:31:25.099Z,9.90
2018-06-22T01:36:28.323Z,9.90
2018-06-22T01:41:31.516Z,9.81
2018-06-22T01:46:34.929Z,9.73
2018-06-22T01:51:38.030Z,9.75
2018-06-22T01:56:41.162Z,9.68
2018-06-22T02:01:44.312Z,9.66
2018-06-22T02:06:47.428Z,9.85
2018-06-22T02:11:50.627Z,9.88
2018-06-22T02:16:54.049Z,9.73
2018-06-22T02:21:57.190Z,9.78
2018-06-22T02:27:00.432Z,9.91
2018-06-22T02:32:03.592Z,9.83
2018-06-22T02:37:06.806Z,9.86
2018-06-22T02:42:09.932Z,9.83
2018-06-22T02:47:13.038Z,10.08
2018-06-22T02:52:16.129Z,10.30
2018-06-22T02:57:19.319Z,10.43
2018-06-22T03:02:23.203Z,10.52
2018-06-22T03:07:26.410Z,10.66
2018-06-22T03:12:29.523Z,10.76
2018-06-22T03:17:32.722Z,10.77
2018-06-22T03:22:39.958Z,10.83
2018-06-22T03:27:43.179Z,10.82
2018-06-22T03:32:46.335Z,10.87
2018-06-22T03:37:49.531Z,10.94
2018-06-22T03:42:52.733Z,10.98
2018-06-22T03:47:56.042Z,11.08
2018-06-22T03:52:59.856Z,11.22
2018-06-22T03:58:03.175Z,11.48
2018-06-22T04:03:06.419Z,11.50
2018-06-22T04:08:09.793Z,11.49
2018-06-22T04:13:12.877Z,11.42
2018-06-22T04:18:16.050Z,11.40
2018-06-22T04:23:19.189Z,11.26
2018-06-22T04:28:25.593Z,11.29
2018-06-22T04:33:28.904Z,11.38
2018-06-22T04:38:32.122Z,11.52
2018-06-22T04:43:35.249Z,11.81
2018-06-22T04:48:38.416Z,11.77
2018-06-22T04:53:41.549Z,11.98
2018-06-22T04:58:45.288Z,12.14
2018-06-22T05:03:49.420Z,12.04
2018-06-22T05:08:52.757Z,12.07
2018-06-22T05:13:55.949Z,11.95
2018-06-22T05:18:59.259Z,12.00
2018-06-22T05:24:03.995Z,12.29
2018-06-22T05:29:07.168Z,12.59
2018-06-22T05:34:10.317Z,12.72
2018-06-22T05:39:13.568Z,12.83
2018-06-22T05:44:16.783Z,12.94
2018-06-22T05:49:19.924Z,13.08
2018-06-22T05:54:24.397Z,13.03
2018-06-22T05:59:27.698Z,13.18
2018-06-22T06:04:30.878Z,13.12
2018-06-22T06:09:34.159Z,13.11
2018-06-22T06:14:37.405Z,12.70
2018-06-22T06:19:40.513Z,12.66
2018-06-22T06:24:43.721Z,12.95
2018-06-22T06:29:46.900Z,13.39
2018-06-22T06:34:50.017Z,13.60
2018-06-22T06:39:53.309Z,13.59
2018-06-22T06:44:56.629Z,14.42
2018-06-22T06:50:00.302Z,15.77
2018-06-22T06:55:03.945Z,15.12
2018-06-22T07:00:07.142Z,14.19
2018-06-22T07:05:10.275Z,13.93
2018-06-22T07:10:13.503Z,13.79
2018-06-22T07:15:16.666Z,13.64
2018-06-22T07:20:19.832Z,15.30
2018-06-22T07:25:25.163Z,15.16
2018-06-22T07:30:28.441Z,15.41
2018-06-22T07:35:31.724Z,15.72
2018-06-22T07:40:34.858Z,19.98
2018-06-22T07:45:37.937Z,22.22
2018-06-22T07:50:41.159Z,20.22
2018-06-22T07:55:44.287Z,17.08
2018-06-22T08:00:48.143Z,15.89
2018-06-22T08:05:51.288Z,15.40
2018-06-22T08:10:54.512Z,16.53
2018-06-22T08:15:59.809Z,16.19
2018-06-22T08:21:03.001Z,15.54
2018-06-22T08:26:06.764Z,16.37
2018-06-22T08:31:11.489Z,17.37
2018-06-22T08:36:14.622Z,18.26
2018-06-22T08:41:17.804Z,17.13
2018-06-22T08:46:20.950Z,15.71
2018-06-22T08:51:25.451Z,15.06
2018-06-22T08:56:28.682Z,14.83
2018-06-22T09:01:32.015Z,15.18
2018-06-22T09:06:35.291Z,20.48
2018-06-22T09:11:38.462Z,19.48
2018-06-22T09:16:41.630Z,17.42
2018-06-22T09:21:44.780Z,15.98
2018-06-22T09:26:47.950Z,15.68
2018-06-22T09:31:51.115Z,16.26
2018-06-22T09:36:54.905Z,17.09
2018-06-22T09:41:58.162Z,13.82
2018-06-22T09:47:01.294Z,12.79
2018-06-22T09:52:05.016Z,11.98
2018-06-22T09:57:08.236Z,11.69
2018-06-22T10:02:11.319Z,11.77
2018-06-22T10:07:14.418Z,11.77
2018-06-22T10:12:17.545Z,11.81
2018-06-22T10:17:20.776Z,11.96
2018-06-22T10:22:24.018Z,12.66
2018-06-22T10:27:27.406Z,13.65
2018-06-22T10:32:31.386Z,14.23
2018-06-22T10:37:34.595Z,16.18
2018-06-22T10:42:37.778Z,19.51
2018-06-22T10:47:40.985Z,20.30
2018-06-22T10:52:44.194Z,21.06
2018-06-22T10:57:47.349Z,21.23
2018-06-22T11:02:51.635Z,21.19
2018-06-22T11:07:54.920Z,21.66
2018-06-22T11:12:58.159Z,19.21
2018-06-22T11:18:01.381Z,13.10
2018-06-22T11:23:04.566Z,11.71
2018-06-22T11:28:07.795Z,11.83
2018-06-22T11:33:10.963Z,12.17
2018-06-22T11:38:14.195Z,12.74
2018-06-22T11:43:17.338Z,13.65
2018-06-22T11:48:20.528Z,15.08
2018-06-22T11:53:24.156Z,15.96
2018-06-22T11:58:27.363Z,17.48
2018-06-22T12:03:30.591Z,19.29
2018-06-22T12:08:33.872Z,20.18
2018-06-22T12:13:37.151Z,19.37
2018-06-22T12:18:40.292Z,19.57
2018-06-22T12:23:43.602Z,19.22
2018-06-22T12:28:46.804Z,20.04
2018-06-22T12:33:49.977Z,20.37
2018-06-22T12:38:54.438Z,20.81
2018-06-22T12:43:57.833Z,19.06
2018-06-22T12:49:01.066Z,18.11
2018-06-22T12:54:04.551Z,18.37
2018-06-22T12:59:09.038Z,19.33
2018-06-22T13:04:12.214Z,18.91
2018-06-22T13:09:15.383Z,18.88
2018-06-22T13:14:18.501Z,19.70
2018-06-22T13:19:21.663Z,20.78
2018-06-22T13:24:25.144Z,20.68
2018-06-22T13:29:28.604Z,20.25
2018-06-22T13:34:32.239Z,18.33
2018-06-22T13:39:35.399Z,19.38
2018-06-22T13:44:38.614Z,21.36
2018-06-22T13:49:41.774Z,21.06
2018-06-22T13:54:45.092Z,19.76
2018-06-22T13:59:48.232Z,20.77
2018-06-22T14:04:51.346Z,21.26
2018-06-22T14:09:54.733Z,20.77
2018-06-22T14:14:58.312Z,19.53
2018-06-22T14:20:01.530Z,19.85
2018-06-22T14:25:05.185Z,20.20
2018-06-22T14:30:08.355Z,19.86
2018-06-22T14:35:11.561Z,19.19
2018-06-22T14:40:14.848Z,18.85
2018-06-22T14:45:18.199Z,18.75
2018-06-22T14:50:21.441Z,19.33
2018-06-22T14:55:24.719Z,19.23
2018-06-22T15:00:28.246Z,19.10
2018-06-22T15:05:31.585Z,18.66
2018-06-22T15:10:34.752Z,17.35
2018-06-22T15:15:38.492Z,17.30
2018-06-22T15:20:41.697Z,17.78
2018-06-22T15:25:44.866Z,18.39
2018-06-22T15:30:48.034Z,18.41
2018-06-22T15:35:51.196Z,19.28
2018-06-22T15:40:55.419Z,19.93
2018-06-22T15:45:58.931Z,20.13
2018-06-22T15:51:02.240Z,20.28
2018-06-22T15:56:05.580Z,19.93
2018-06-22T16:01:08.804Z,20.61
2018-06-22T16:06:12.046Z,20.27
2018-06-22T16:11:15.168Z,20.33
2018-06-22T16:16:18.416Z,20.41
2018-06-22T16:21:21.712Z,19.80
2018-06-22T16:26:26.319Z,19.26
2018-06-22T16:31:29.725Z,18.54
2018-06-22T16:36:33.140Z,18.37
2018-06-22T16:41:36.913Z,18.07
2018-06-22T16:46:40.063Z,18.42
2018-06-22T16:51:43.248Z,18.55
2018-06-22T16:56:46.380Z,18.43
2018-06-22T17:01:49.470Z,18.29
2018-06-22T17:06:52.821Z,18.04
2018-06-22T17:11:56.587Z,17.68
2018-06-22T17:17:00.070Z,17.65
2018-06-22T17:22:03.419Z,17.38
2018-06-22T17:27:07.446Z,17.42
2018-06-22T17:32:10.655Z,17.63
2018-06-22T17:37:13.869Z,17.79
2018-06-22T17:42:17.065Z,17.91
2018-06-22T17:47:20.900Z,17.53
2018-06-22T17:52:26.436Z,17.42
2018-06-22T17:57:31.896Z,17.20
2018-06-22T18:02:36.886Z,16.96
2018-06-22T18:07:40.288Z,16.90
2018-06-22T18:12:44.965Z,16.89
2018-06-22T18:17:49.676Z,16.67
2018-06-22T18:22:54.742Z,16.66
2018-06-22T18:27:58.883Z,16.64
2018-06-22T18:33:02.577Z,16.51
2018-06-22T18:38:07.451Z,16.52
2018-06-22T18:43:11.968Z,16.36
2018-06-22T18:48:15.666Z,16.22
2018-06-22T18:53:19.993Z,16.26
2018-06-22T18:58:25.632Z,16.21
2018-06-22T19:03:30.746Z,16.18
2018-06-22T19:08:35.796Z,16.07
2018-06-22T19:13:52.081Z,16.02
2018-06-22T19:18:56.494Z,15.78
2018-06-22T19:23:59.868Z,15.58
2018-06-22T19:29:04.170Z,15.31
2018-06-22T19:34:09.065Z,15.20
2018-06-22T19:39:12.188Z,15.09
2018-06-22T19:44:21.811Z,15.02
2018-06-22T19:49:25.082Z,14.86
2018-06-22T19:54:28.349Z,14.86
2018-06-22T19:59:31.650Z,14.76
2018-06-22T20:04:34.883Z,14.96
2018-06-22T20:09:38.027Z,14.89
2018-06-22T20:14:41.130Z,14.68
2018-06-22T20:19:45.136Z,14.70
2018-06-22T20:24:48.335Z,14.57
2018-06-22T20:29:51.675Z,14.54
2018-06-22T20:34:54.875Z,14.64
2018-06-22T20:39:59.139Z,14.66
2018-06-22T20:45:03.829Z,14.67
2018-06-22T20:50:06.982Z,14.60
2018-06-22T20:55:10.098Z,14.48
2018-06-22T21:00:13.437Z,14.40
2018-06-22T21:05:16.751Z,14.21
2018-06-22T21:10:20.217Z,14.21
2018-06-22T21:15:23.398Z,14.27
2018-06-22T21:20:26.604Z,14.49
2018-06-22T21:25:30.051Z,14.52
2018-06-22T21:30:33.212Z,14.54
2018-06-22T21:35:38.318Z,14.57
2018-06-22T21:40:41.443Z,14.54
2018-06-22T21:45:44.586Z,14.48
2018-06-22T21:50:47.825Z,14.45
2018-06-22T21:55:51.154Z,14.42
2018-06-22T22:00:54.408Z,14.39
2018-06-22T22:05:57.668Z,14.26
2018-06-22T22:11:00.827Z,14.22
2018-06-22T22:16:04.220Z,14.14
2018-06-22T22:21:07.354Z,14.20
2018-06-22T22:26:10.480Z,14.10
2018-06-22T22:31:13.718Z,14.06
2018-06-22T22:36:16.910Z,14.02
2018-06-22T22:41:20.004Z,13.97
2018-06-22T22:46:23.232Z,13.76
2018-06-22T22:51:26.433Z,13.62
2018-06-22T22:56:29.690Z,13.57
2018-06-22T23:01:32.846Z,13.49
2018-06-22T23:06:36.066Z,13.55
2018-06-22T23:11:39.190Z,13.38
2018-06-22T23:16:42.379Z,13.20
2018-06-22T23:21:45.514Z,13.20
2018-06-22T23:26:48.683Z,13.34
2018-06-22T23:31:51.824Z,13.34
2018-06-22T23:36:55.034Z,13.31
2018-06-22T23:41:58.292Z,13.35
2018-06-22T23:47:01.479Z,13.43
2018-06-22T23:52:04.657Z,13.41
2018-06-22T23:57:07.867Z,13.32
